createdAt,value
2022-12-18T00:02:17.892Z,77.00
2022-12-18T00:05:21.300Z,68.53
2022-12-18T00:08:24.683Z,85.72
2022-12-18T00:11:30.584Z,85.82
2022-12-18T00:14:33.559Z,66.25
2022-12-18T00:17:37.074Z,71.40
2022-12-18T00:20:41.944Z,76.30
2022-12-18T00:23:47.417Z,68.22
2022-12-18T00:26:50.205Z,75.43
2022-12-18T00:29:53.272Z,78.40
2022-12-18T00:32:56.471Z,67.85
2022-12-18T00:36:12.188Z,60.93
2022-12-18T00:39:16.161Z,70.50
2022-12-18T00:42:40.471Z,65.12
2022-12-18T00:45:43.739Z,59.22
2022-12-18T00:48:48.329Z,74.37
2022-12-18T00:51:51.391Z,65.43
2022-12-18T00:54:55.253Z,64.85
2022-12-18T00:57:58.339Z,64.27
2022-12-18T01:01:01.814Z,67.03
2022-12-18T01:04:06.414Z,56.33
2022-12-18T01:07:11.361Z,49.33
2022-12-18T01:10:14.912Z,52.22
2022-12-18T01:13:18.679Z,64.07
2022-12-18T01:16:23.408Z,47.90
2022-12-18T01:19:26.837Z,60.28
2022-12-18T01:22:31.326Z,60.58
2022-12-18T01:25:40.192Z,49.15
2022-12-18T01:28:46.346Z,56.70
2022-12-18T01:31:51.324Z,58.80
2022-12-18T01:34:54.400Z,43.50
2022-12-18T01:37:59.187Z,49.90
2022-12-18T01:41:04.059Z,50.03
2022-12-18T01:44:45.966Z,54.38
2022-12-18T01:47:53.104Z,51.28
2022-12-18T01:50:57.010Z,51.37
2022-12-18T01:54:01.834Z,49.15
2022-12-18T01:57:05.283Z,44.58
2022-12-18T02:00:14.804Z,46.13
2022-12-18T02:03:19.121Z,45.30
2022-12-18T02:06:34.497Z,49.90
2022-12-18T02:10:00.838Z,49.10
2022-12-18T02:13:29.217Z,51.83
2022-12-18T02:16:54.867Z,50.33
2022-12-18T02:20:19.657Z,52.03
2022-12-18T02:23:37.706Z,41.37
2022-12-18T02:26:52.196Z,44.63
2022-12-18T02:30:00.703Z,48.60
2022-12-18T02:33:07.520Z,45.53
2022-12-18T02:36:14.050Z,48.72
2022-12-18T02:39:21.359Z,38.97
2022-12-18T02:42:25.742Z,48.87
2022-12-18T02:45:29.196Z,42.42
2022-12-18T02:48:35.090Z,52.65
2022-12-18T02:52:11.222Z,42.90
2022-12-18T02:55:17.731Z,41.58
2022-12-18T02:58:37.689Z,47.92
2022-12-18T03:01:56.167Z,37.95
2022-12-18T03:05:03.295Z,34.93
2022-12-18T03:08:29.144Z,46.33
2022-12-18T03:11:57.063Z,39.33
2022-12-18T03:15:14.564Z,39.17
2022-12-18T03:18:26.146Z,40.80
2022-12-18T03:21:43.681Z,39.25
2022-12-18T03:24:49.788Z,37.03
2022-12-18T03:27:59.948Z,38.67
2022-12-18T03:31:08.673Z,43.15
2022-12-18T03:34:18.735Z,46.42
2022-12-18T03:37:22.762Z,38.37
2022-12-18T03:40:36.450Z,43.58
2022-12-18T03:43:53.312Z,40.30
2022-12-18T03:46:57.554Z,46.60
2022-12-18T03:50:12.470Z,38.13
2022-12-18T03:53:59.054Z,34.25
2022-12-18T03:57:15.780Z,37.35
2022-12-18T04:00:22.735Z,44.17
2022-12-18T04:03:32.391Z,38.45
2022-12-18T04:06:37.428Z,39.60
2022-12-18T04:09:44.426Z,43.50
2022-12-18T04:12:49.665Z,40.20
2022-12-18T04:15:56.189Z,43.38
2022-12-18T04:19:00.415Z,45.30
2022-12-18T04:22:05.354Z,36.13
2022-12-18T04:25:13.480Z,45.35
2022-12-18T04:28:20.593Z,35.80
2022-12-18T04:31:27.951Z,42.03
2022-12-18T04:34:35.012Z,37.08
2022-12-18T04:37:38.902Z,38.72
2022-12-18T04:40:42.500Z,45.47
2022-12-18T04:43:46.511Z,42.95
2022-12-18T04:46:49.988Z,38.00
2022-12-18T04:49:53.526Z,35.87
2022-12-18T04:52:59.179Z,37.38
2022-12-18T04:56:08.839Z,45.22
2022-12-18T04:59:12.329Z,36.78
2022-12-18T05:02:15.404Z,36.55
2022-12-18T05:05:19.862Z,39.50
2022-12-18T05:08:23.214Z,37.45
2022-12-18T05:11:27.447Z,44.70
2022-12-18T05:14:30.715Z,40.28
2022-12-18T05:17:33.976Z,39.85
2022-12-18T05:20:37.199Z,45.67
2022-12-18T05:23:40.937Z,52.13
2022-12-18T05:26:44.315Z,40.42
2022-12-18T05:29:47.970Z,42.28
2022-12-18T05:32:51.227Z,40.08
2022-12-18T05:35:57.856Z,45.00
2022-12-18T05:39:02.008Z,42.10
2022-12-18T05:42:05.442Z,43.67
2022-12-18T05:45:09.120Z,37.85
2022-12-18T05:48:13.678Z,47.97
2022-12-18T05:51:19.288Z,50.30
2022-12-18T05:54:23.325Z,52.15
2022-12-18T05:57:26.418Z,44.75
2022-12-18T06:00:30.933Z,46.65
2022-12-18T06:03:34.430Z,38.95
2022-12-18T06:06:37.868Z,43.13
2022-12-18T06:09:43.331Z,49.30
2022-12-18T06:12:46.540Z,44.80
2022-12-18T06:15:50.980Z,51.05
2022-12-18T06:18:54.445Z,44.17
2022-12-18T06:21:59.999Z,46.90
2022-12-18T06:25:03.210Z,49.25
2022-12-18T06:28:06.954Z,42.15
2022-12-18T06:31:11.057Z,43.33
2022-12-18T06:34:14.432Z,52.90
2022-12-18T06:37:17.823Z,44.63
2022-12-18T06:40:21.355Z,48.87
2022-12-18T06:43:24.657Z,51.90
2022-12-18T06:46:28.344Z,61.92
2022-12-18T06:49:31.651Z,56.47
2022-12-18T06:52:35.461Z,71.53
2022-12-18T06:55:38.521Z,81.80
2022-12-18T06:58:46.029Z,75.75
2022-12-18T07:01:49.343Z,69.03
2022-12-18T07:04:53.866Z,66.70
2022-12-18T07:07:57.007Z,67.05
2022-12-18T07:11:00.516Z,69.62
2022-12-18T07:14:03.908Z,78.30
2022-12-18T07:17:07.472Z,80.28
2022-12-18T07:20:11.245Z,73.35
2022-12-18T07:23:14.645Z,69.60
2022-12-18T07:26:20.355Z,84.68
2022-12-18T07:29:24.113Z,70.05
2022-12-18T07:32:27.211Z,69.82
2022-12-18T07:35:30.632Z,73.95
2022-12-18T07:38:36.071Z,73.93
2022-12-18T07:41:46.778Z,72.20
2022-12-18T07:44:52.288Z,72.17
2022-12-18T07:47:55.669Z,54.42
2022-12-18T07:51:04.383Z,55.03
2022-12-18T07:54:07.954Z,56.50
2022-12-18T07:57:27.376Z,55.03
2022-12-18T08:00:35.617Z,66.62
2022-12-18T08:03:42.130Z,50.72
2022-12-18T08:06:48.354Z,48.28
2022-12-18T08:09:52.021Z,53.13
2022-12-18T08:12:56.336Z,62.55
2022-12-18T08:16:07.112Z,57.43
2022-12-18T08:19:10.380Z,84.47
2022-12-18T08:22:14.539Z,99.97
2022-12-18T08:25:18.004Z,83.67
2022-12-18T08:28:21.637Z,88.10
2022-12-18T08:31:26.245Z,66.72
2022-12-18T08:34:29.743Z,64.28
2022-12-18T08:37:32.921Z,83.10
2022-12-18T08:40:36.561Z,65.30
2022-12-18T08:43:58.181Z,55.47
2022-12-18T08:47:01.486Z,51.67
2022-12-18T08:50:05.270Z,52.10
2022-12-18T08:53:08.856Z,48.80
2022-12-18T08:56:12.480Z,58.03
2022-12-18T08:59:19.661Z,47.45
2022-12-18T09:02:24.020Z,55.60
2022-12-18T09:05:27.496Z,49.75
2022-12-18T09:08:31.388Z,49.40
2022-12-18T09:11:35.371Z,51.95
2022-12-18T09:14:38.547Z,54.40
2022-12-18T09:17:41.900Z,54.33
2022-12-18T09:20:45.484Z,55.42
2022-12-18T09:23:53.535Z,45.10
2022-12-18T09:26:58.019Z,43.77
2022-12-18T09:30:01.777Z,42.25
2022-12-18T09:33:04.853Z,37.85
2022-12-18T09:36:12.689Z,43.38
2022-12-18T09:39:15.889Z,49.70
2022-12-18T09:42:24.119Z,41.88
2022-12-18T09:45:29.119Z,40.25
2022-12-18T09:48:37.493Z,42.23
2022-12-18T09:51:50.204Z,47.05
2022-12-18T09:55:01.961Z,41.55
2022-12-18T09:58:11.117Z,59.60
2022-12-18T10:01:23.773Z,42.72
2022-12-18T10:04:32.050Z,41.25
2022-12-18T10:07:53.870Z,44.50
2022-12-18T10:11:05.956Z,43.03
2022-12-18T10:14:19.380Z,49.95
2022-12-18T10:17:43.005Z,44.30
2022-12-18T10:20:54.085Z,43.00
2022-12-18T10:24:17.525Z,46.60
2022-12-18T10:27:25.467Z,51.95
2022-12-18T10:30:29.008Z,45.73
2022-12-18T10:33:34.642Z,42.67
2022-12-18T10:36:39.083Z,44.30
2022-12-18T10:39:42.416Z,44.63
2022-12-18T10:42:46.083Z,45.45
2022-12-18T10:46:11.194Z,45.00
2022-12-18T10:49:29.383Z,42.90
2022-12-18T10:52:32.501Z,43.83
2022-12-18T10:55:40.956Z,41.03
2022-12-18T10:58:57.866Z,44.30
2022-12-18T11:02:01.413Z,45.63
2022-12-18T11:05:24.862Z,41.88
2022-12-18T11:08:30.022Z,43.72
2022-12-18T11:11:34.447Z,47.13
2022-12-18T11:14:47.363Z,46.47
2022-12-18T11:17:52.800Z,49.90
2022-12-18T11:21:00.111Z,50.20
2022-12-18T11:24:03.377Z,44.27
2022-12-18T11:27:18.977Z,52.42
2022-12-18T11:30:26.843Z,49.80
2022-12-18T11:33:30.284Z,51.13
2022-12-18T11:36:43.427Z,49.55
2022-12-18T11:39:56.163Z,43.92
2022-12-18T11:43:14.525Z,34.20
2022-12-18T11:46:41.192Z,45.45
2022-12-18T11:49:44.432Z,45.97
2022-12-18T11:52:51.576Z,47.00
2022-12-18T11:56:24.334Z,42.83
2022-12-18T11:59:43.699Z,40.42
2022-12-18T12:03:17.865Z,44.45
2022-12-18T12:06:48.955Z,43.67
2022-12-18T12:10:17.955Z,45.20
2022-12-18T12:13:36.475Z,42.97
2022-12-18T12:17:26.077Z,42.30
2022-12-18T12:20:51.864Z,46.00
2022-12-18T12:24:24.728Z,43.75
2022-12-18T12:27:36.202Z,39.88
2022-12-18T12:31:11.159Z,47.83
2022-12-18T12:34:24.011Z,41.35
2022-12-18T12:37:34.115Z,37.08
2022-12-18T12:41:02.540Z,35.97
2022-12-18T12:44:14.748Z,37.55
2022-12-18T12:47:33.522Z,35.17
2022-12-18T12:50:38.807Z,36.88
2022-12-18T12:53:43.010Z,36.13
2022-12-18T12:56:46.289Z,39.00
2022-12-18T13:00:05.017Z,54.58
2022-12-18T13:03:33.184Z,53.40
2022-12-18T13:07:00.424Z,46.67
2022-12-18T13:10:25.747Z,48.35
2022-12-18T13:13:50.780Z,46.50
2022-12-18T13:17:21.031Z,46.55
2022-12-18T13:20:35.408Z,46.80
2022-12-18T13:23:39.683Z,49.85
2022-12-18T13:26:43.335Z,40.72
2022-12-18T13:29:48.130Z,42.05
2022-12-18T13:33:14.999Z,45.58
2022-12-18T13:36:28.445Z,42.53
2022-12-18T13:39:35.899Z,42.03
2022-12-18T13:42:59.722Z,53.83
2022-12-18T13:46:07.381Z,45.07
2022-12-18T13:49:13.762Z,37.72
2022-12-18T13:52:27.254Z,38.90
2022-12-18T13:55:31.146Z,40.55
2022-12-18T13:58:34.733Z,44.75
2022-12-18T14:01:37.994Z,46.83
2022-12-18T14:04:41.621Z,41.67
2022-12-18T14:07:48.309Z,55.27
2022-12-18T14:10:54.734Z,45.33
2022-12-18T14:13:58.565Z,51.53
2022-12-18T14:17:03.538Z,51.20
2022-12-18T14:20:16.603Z,52.50
2022-12-18T14:23:41.499Z,49.65
2022-12-18T14:26:45.018Z,62.67
2022-12-18T14:29:48.586Z,50.17
2022-12-18T14:33:25.358Z,58.75
2022-12-18T14:36:30.565Z,63.05
2022-12-18T14:39:33.769Z,58.70
2022-12-18T14:42:39.035Z,63.45
2022-12-18T14:45:44.598Z,62.42
2022-12-18T14:48:49.471Z,53.50
2022-12-18T14:52:01.343Z,63.60
2022-12-18T14:55:08.296Z,55.55
2022-12-18T14:58:18.769Z,57.53
2022-12-18T15:02:03.574Z,70.03
2022-12-18T15:05:15.276Z,77.85
2022-12-18T15:08:38.153Z,76.10
2022-12-18T15:11:42.961Z,80.63
2022-12-18T15:15:01.830Z,71.12
2022-12-18T15:18:23.127Z,63.53
2022-12-18T15:21:32.023Z,66.53
2022-12-18T15:24:37.815Z,66.75
2022-12-18T15:27:49.099Z,62.42
2022-12-18T15:31:12.956Z,65.10
2022-12-18T15:34:25.125Z,63.40
2022-12-18T15:37:30.679Z,67.22
2022-12-18T15:40:37.735Z,94.70
2022-12-18T15:43:43.334Z,60.40
2022-12-18T15:46:50.307Z,72.43
2022-12-18T15:49:54.834Z,81.63
2022-12-18T15:53:00.107Z,77.60
2022-12-18T15:56:29.542Z,76.82
2022-12-18T15:59:34.367Z,105.32
2022-12-18T16:02:39.415Z,105.60
2022-12-18T16:05:44.401Z,103.50
2022-12-18T16:08:48.830Z,110.22
2022-12-18T16:11:56.249Z,113.35
2022-12-18T16:15:03.529Z,92.17
2022-12-18T16:18:08.096Z,84.57
2022-12-18T16:21:12.262Z,91.25
2022-12-18T16:24:23.527Z,81.67
2022-12-18T16:27:29.686Z,77.68
2022-12-18T16:30:38.013Z,77.72
2022-12-18T16:33:43.728Z,83.40
2022-12-18T16:36:49.898Z,73.80
2022-12-18T16:39:54.686Z,89.93
2022-12-18T16:43:11.771Z,95.75
2022-12-18T16:46:15.868Z,107.87
2022-12-18T16:49:21.184Z,119.93
2022-12-18T16:52:26.368Z,105.37
2022-12-18T16:55:31.336Z,105.70
2022-12-18T16:58:36.376Z,107.22
2022-12-18T17:01:42.449Z,116.95
2022-12-18T17:04:48.710Z,143.20
2022-12-18T17:07:52.995Z,116.18
2022-12-18T17:10:57.253Z,95.87
2022-12-18T17:14:07.855Z,95.32
2022-12-18T17:17:23.071Z,99.33
2022-12-18T17:20:32.633Z,107.72
2022-12-18T17:23:38.244Z,105.82
2022-12-18T17:26:43.081Z,193.27
2022-12-18T17:29:48.788Z,181.43
2022-12-18T17:32:57.484Z,124.90
2022-12-18T17:36:03.028Z,118.00
2022-12-18T17:39:18.929Z,115.37
2022-12-18T17:42:23.065Z,110.85
2022-12-18T17:45:29.275Z,108.32
2022-12-18T17:48:36.176Z,99.30
2022-12-18T17:51:43.512Z,103.22
2022-12-18T17:54:47.558Z,88.25
2022-12-18T17:57:54.162Z,84.77
2022-12-18T18:01:01.048Z,98.00
2022-12-18T18:04:07.144Z,93.97
2022-12-18T18:07:11.745Z,94.28
2022-12-18T18:10:17.732Z,97.15
2022-12-18T18:13:47.156Z,99.45
2022-12-18T18:16:53.004Z,89.15
2022-12-18T18:19:57.704Z,90.90
2022-12-18T18:23:02.481Z,97.75
2022-12-18T18:26:08.781Z,92.70
2022-12-18T18:29:21.227Z,102.40
2022-12-18T18:32:26.000Z,106.28
2022-12-18T18:35:53.351Z,103.00
2022-12-18T18:38:55.351Z,129.50
2022-12-18T18:42:00.075Z,116.53
2022-12-18T18:45:11.697Z,118.55
2022-12-18T18:48:17.692Z,130.43
2022-12-18T18:51:24.186Z,113.73
2022-12-18T18:54:31.699Z,105.63
2022-12-18T18:57:36.231Z,103.97
2022-12-18T19:00:41.266Z,99.83
2022-12-18T19:03:46.875Z,102.20
2022-12-18T19:06:51.353Z,115.10
2022-12-18T19:09:57.648Z,107.85
2022-12-18T19:13:22.854Z,99.90
2022-12-18T19:16:28.679Z,110.10
2022-12-18T19:19:36.350Z,104.87
2022-12-18T19:22:42.233Z,109.47
2022-12-18T19:25:50.670Z,111.72
2022-12-18T19:29:01.635Z,104.25
2022-12-18T19:32:07.437Z,96.07
2022-12-18T19:35:12.804Z,113.30
2022-12-18T19:38:18.854Z,118.45
2022-12-18T19:41:24.534Z,112.45
2022-12-18T19:44:30.814Z,116.28
2022-12-18T19:47:36.125Z,126.20
2022-12-18T19:50:42.879Z,133.70
2022-12-18T19:53:48.163Z,130.00
2022-12-18T19:56:54.041Z,136.32
2022-12-18T19:59:58.563Z,127.50
2022-12-18T20:03:16.020Z,117.47
2022-12-18T20:06:33.561Z,112.55
2022-12-18T20:09:39.112Z,108.05
2022-12-18T20:12:43.891Z,114.30
2022-12-18T20:15:48.047Z,117.35
2022-12-18T20:18:52.448Z,112.78
2022-12-18T20:21:56.854Z,130.12
2022-12-18T20:25:01.668Z,105.50
2022-12-18T20:28:06.133Z,120.95
2022-12-18T20:31:13.352Z,118.25
2022-12-18T20:34:18.106Z,119.90
2022-12-18T20:37:22.567Z,122.22
2022-12-18T20:40:29.504Z,108.10
2022-12-18T20:43:33.085Z,118.35
2022-12-18T20:46:38.374Z,118.62
2022-12-18T20:49:42.689Z,125.97
2022-12-18T20:52:50.754Z,124.93
2022-12-18T20:55:54.343Z,122.83
2022-12-18T20:58:58.914Z,123.18
2022-12-18T21:02:02.675Z,125.78
2022-12-18T21:05:06.483Z,129.47
2022-12-18T21:08:10.914Z,137.60
2022-12-18T21:11:40.658Z,145.68
2022-12-18T21:14:44.902Z,136.80
2022-12-18T21:17:49.712Z,151.90
2022-12-18T21:20:53.197Z,150.40
2022-12-18T21:23:56.596Z,136.37
2022-12-18T21:27:00.356Z,135.67
2022-12-18T21:30:03.993Z,133.60
2022-12-18T21:33:07.603Z,167.85
2022-12-18T21:36:11.078Z,171.67
2022-12-18T21:39:16.324Z,155.30
2022-12-18T21:42:38.080Z,141.50
2022-12-18T21:45:41.546Z,142.50
2022-12-18T21:48:45.863Z,133.40
2022-12-18T21:51:51.098Z,122.72
2022-12-18T21:54:54.256Z,139.12
2022-12-18T21:57:58.554Z,124.60
2022-12-18T22:01:01.663Z,127.80
2022-12-18T22:04:05.299Z,142.68
2022-12-18T22:07:09.384Z,149.43
2022-12-18T22:10:14.702Z,138.45
2022-12-18T22:13:17.930Z,147.40
2022-12-18T22:16:21.117Z,144.10
2022-12-18T22:19:27.632Z,131.32
2022-12-18T22:22:30.808Z,154.18
2022-12-18T22:25:35.228Z,128.85
2022-12-18T22:28:59.200Z,128.13
2022-12-18T22:32:04.196Z,136.93
2022-12-18T22:35:14.150Z,128.15
2022-12-18T22:38:19.112Z,134.23
2022-12-18T22:41:22.436Z,137.40
2022-12-18T22:44:26.849Z,113.40
2022-12-18T22:47:30.832Z,127.20
2022-12-18T22:50:33.995Z,128.15
2022-12-18T22:53:37.333Z,126.30
2022-12-18T22:56:40.714Z,133.02
2022-12-18T22:59:44.213Z,127.17
2022-12-18T23:02:47.432Z,144.50
2022-12-18T23:05:50.992Z,118.22
2022-12-18T23:08:58.247Z,112.10
2022-12-18T23:12:01.665Z,117.95
2022-12-18T23:15:05.611Z,117.70
2022-12-18T23:18:09.068Z,136.50
2022-12-18T23:21:17.685Z,117.03
2022-12-18T23:24:22.073Z,139.70
2022-12-18T23:27:25.223Z,115.37
2022-12-18T23:30:28.818Z,133.93
2022-12-18T23:33:31.942Z,127.50
2022-12-18T23:36:46.513Z,125.38
2022-12-18T23:39:50.165Z,130.73
2022-12-18T23:42:53.481Z,128.50
2022-12-18T23:45:56.478Z,118.87
2022-12-18T23:49:01.924Z,112.55
2022-12-18T23:52:05.206Z,128.93
2022-12-18T23:55:08.912Z,136.32
2022-12-18T23:58:20.222Z,140.23
